Time;durP1;ratioP1;P1;durP2;ratioP2;P2;SDS_P1;SDS_P2;PMS_P1;PMS_P2;Temp;Humidity;BMP_temperature;BMP_pressure;BME280_temperature;BME280_humidity;BME280_pressure;Samples;Min_cycle;Max_cycle;Signal;HPM_P1;HPM_P2
2021/11/24 00:02:22;;;;;;;;;;;-1.40;51.60;;;;;;4375066;32;20014;-39
2021/11/24 00:04:48;;;;;;;;;;;-1.40;51.60;;;;;;4375376;32;19977;-38
2021/11/24 00:07:15;;;;;;;;;;;-1.30;51.50;;;;;;4373490;32;20418;-37
2021/11/24 00:09:41;;;;;;;;;;;-1.20;51.30;;;;;;4373683;32;20004;-39
2021/11/24 00:12:08;;;;;;;;;;;-1.20;51.00;;;;;;4375131;32;19965;-39
2021/11/24 00:14:34;;;;;;;;;;;-1.10;50.90;;;;;;4375061;32;19982;-39
2021/11/24 00:17:00;;;;;;;;;;;-1.10;50.80;;;;;;4360939;32;19985;-37
2021/11/24 00:19:27;;;;;;;;;;;-1.10;50.80;;;;;;4360667;32;19974;-38
2021/11/24 00:21:53;;;;;;;;;;;-1.10;50.70;;;;;;4374916;32;20391;-40
2021/11/24 00:24:21;;;;;;;;;;;-1.00;50.70;;;;;;4375488;32;20063;-37
2021/11/24 00:26:47;;;;;;;;;;;-1.00;50.60;;;;;;4375219;32;20414;-34
2021/11/24 00:29:13;;;;;;;;;;;-0.90;50.50;;;;;;4360880;32;20399;-39
2021/11/24 00:31:41;;;;;;;;;;;-0.90;50.40;;;;;;4373640;32;19962;-38
2021/11/24 00:34:07;;;;;;;;;;;-0.80;50.30;;;;;;4374966;32;19998;-39
2021/11/24 00:36:34;;;;;;;;;;;-0.80;50.30;;;;;;4374795;32;20367;-39
2021/11/24 00:39:00;;;;;;;;;;;-0.80;50.20;;;;;;4374396;32;19966;-35
2021/11/24 00:41:26;;;;;;;;;;;-0.70;50.10;;;;;;4390166;32;20005;-38
2021/11/24 00:43:52;;;;;;;;;;;-0.70;49.80;;;;;;4389691;32;19968;-38
2021/11/24 00:46:18;;;;;;;;;;;-0.80;49.60;;;;;;4389920;32;19972;-37
2021/11/24 00:48:45;;;;;;;;;;;-0.90;49.70;;;;;;4390136;32;19986;-37
2021/11/24 00:51:11;;;;;;;;;;;-0.90;49.80;;;;;;4389685;32;20015;-38
2021/11/24 00:53:37;;;;;;;;;;;-1.00;49.90;;;;;;4389347;32;19969;-37
2021/11/24 00:56:03;;;;;;;;;;;-1.10;50.00;;;;;;4389650;32;19994;-39
2021/11/24 00:58:30;;;;;;;;;;;-1.20;50.20;;;;;;4389716;32;19981;-39
2021/11/24 01:00:56;;;;;;;;;;;-1.30;50.40;;;;;;4389206;32;19962;-39
2021/11/24 01:03:22;;;;;;;;;;;-1.30;50.70;;;;;;4389440;32;20373;-38
2021/11/24 01:05:48;;;;;;;;;;;-1.40;50.70;;;;;;4356843;32;20088;-38
2021/11/24 01:08:16;;;;;;;;;;;-1.40;50.80;;;;;;4357201;32;19981;-39
2021/11/24 01:10:43;;;;;;;;;;;-1.40;50.80;;;;;;4344867;32;19978;-39
2021/11/24 01:13:10;;;;;;;;;;;-1.50;50.80;;;;;;4356743;32;19962;-38
2021/11/24 01:15:36;;;;;;;;;;;-1.50;51.00;;;;;;4356481;32;20083;-38
2021/11/24 01:18:03;;;;;;;;;;;-1.60;51.10;;;;;;4356469;32;20430;-39
2021/11/24 01:20:30;;;;;;;;;;;-1.50;51.30;;;;;;4356942;32;20418;-39
2021/11/24 01:22:56;;;;;;;;;;;-1.50;51.30;;;;;;4344089;32;19969;-38
2021/11/24 01:25:22;;;;;;;;;;;-1.50;51.20;;;;;;4356327;32;20506;-37
2021/11/24 01:27:49;;;;;;;;;;;-1.50;51.00;;;;;;4356662;32;20024;-39
2021/11/24 01:30:15;;;;;;;;;;;-1.50;51.00;;;;;;4356635;32;20493;-39
2021/11/24 01:32:41;;;;;;;;;;;-1.50;50.90;;;;;;4356600;32;20001;-38
2021/11/24 01:35:08;;;;;;;;;;;-1.40;51.00;;;;;;4356614;32;19970;-39
2021/11/24 01:37:35;;;;;;;;;;;-1.30;50.90;;;;;;4369496;32;20000;-38
2021/11/24 01:40:01;;;;;;;;;;;-1.30;50.60;;;;;;4388523;32;19970;-39
2021/11/24 01:42:28;;;;;;;;;;;-1.30;50.40;;;;;;4388623;32;19965;-38
2021/11/24 01:44:55;;;;;;;;;;;-1.30;50.40;;;;;;4388597;32;19962;-38
2021/11/24 01:47:21;;;;;;;;;;;-1.30;50.40;;;;;;4389230;32;20001;-40
2021/11/24 01:49:48;;;;;;;;;;;-1.30;50.40;;;;;;4388308;32;20474;-36
2021/11/24 01:52:15;;;;;;;;;;;-1.30;50.40;;;;;;4388848;32;19962;-39
2021/11/24 01:54:41;;;;;;;;;;;-1.20;50.50;;;;;;4374949;32;19976;-38
2021/11/24 01:57:08;;;;;;;;;;;-1.20;50.30;;;;;;4388793;32;19961;-39
2021/11/24 01:59:34;;;;;;;;;;;-1.20;50.10;;;;;;4388719;32;19961;-39
2021/11/24 02:02:00;;;;;;;;;;;-1.20;50.10;;;;;;4388524;32;20438;-38
2021/11/24 02:04:27;;;;;;;;;;;-1.20;50.10;;;;;;4388670;32;19973;-39
2021/11/24 02:06:53;;;;;;;;;;;-1.20;50.10;;;;;;4388318;32;20359;-37
2021/11/24 02:09:20;;;;;;;;;;;-1.20;50.10;;;;;;4374862;32;19974;-39
2021/11/24 02:11:46;;;;;;;;;;;-1.20;50.00;;;;;;4388709;32;20402;-38
2021/11/24 02:14:13;;;;;;;;;;;-1.20;49.90;;;;;;4389095;32;20340;-39
2021/11/24 02:16:48;;;;;;;;;;;-1.30;49.90;;;;;;4388301;32;19966;-38
2021/11/24 02:19:14;;;;;;;;;;;-1.30;50.10;;;;;;4388071;32;20488;-38
2021/11/24 02:21:47;;;;;;;;;;;-1.30;50.30;;;;;;4373729;32;19966;-39
2021/11/24 02:24:14;;;;;;;;;;;-1.30;50.40;;;;;;4373233;32;20016;-39
2021/11/24 02:26:40;;;;;;;;;;;-1.30;50.30;;;;;;4373179;32;20050;-38
2021/11/24 02:29:06;;;;;;;;;;;-1.40;50.20;;;;;;4373057;32;20410;-38
2021/11/24 02:31:33;;;;;;;;;;;-1.40;50.30;;;;;;4373132;32;19981;-38
2021/11/24 02:33:59;;;;;;;;;;;-1.40;50.40;;;;;;4326110;33;20087;-40
2021/11/24 02:36:26;;;;;;;;;;;-1.50;50.40;;;;;;4326049;33;20100;-37
2021/11/24 02:38:53;;;;;;;;;;;-1.50;50.50;;;;;;4314657;33;20415;-38
2021/11/24 02:41:21;;;;;;;;;;;-1.50;50.60;;;;;;4340614;33;19985;-38
2021/11/24 02:43:47;;;;;;;;;;;-1.50;50.60;;;;;;4340697;33;19974;-37
2021/11/24 02:46:14;;;;;;;;;;;-1.50;50.50;;;;;;4325721;33;19994;-39
2021/11/24 02:48:40;;;;;;;;;;;-1.60;50.50;;;;;;4325985;33;20038;-39
2021/11/24 02:51:06;;;;;;;;;;;-1.60;50.50;;;;;;4325489;33;20076;-39
2021/11/24 02:53:34;;;;;;;;;;;-1.60;50.70;;;;;;4326486;33;20098;-38
2021/11/24 02:56:00;;;;;;;;;;;-1.70;50.90;;;;;;4326301;33;19971;-37
2021/11/24 02:58:26;;;;;;;;;;;-1.70;51.00;;;;;;4326000;33;19967;-37
2021/11/24 03:00:57;;;;;;;;;;;-1.70;51.10;;;;;;4325658;33;19978;-39
2021/11/24 03:03:23;;;;;;;;;;;-1.60;51.20;;;;;;4326267;33;19967;-39
2021/11/24 03:05:49;;;;;;;;;;;-1.60;50.90;;;;;;4325829;33;19971;-38
2021/11/24 03:08:16;;;;;;;;;;;-1.60;50.80;;;;;;4325508;33;20039;-36
2021/11/24 03:10:42;;;;;;;;;;;-1.60;50.50;;;;;;4328975;33;19966;-36
2021/11/24 03:13:08;;;;;;;;;;;-1.60;50.70;;;;;;4340861;33;19974;-38
2021/11/24 03:15:34;;;;;;;;;;;-1.70;50.80;;;;;;4340497;33;19979;-39
2021/11/24 03:18:01;;;;;;;;;;;-1.80;50.90;;;;;;4328056;33;19971;-38
2021/11/24 03:20:28;;;;;;;;;;;-1.80;51.10;;;;;;4347133;32;20505;-39
2021/11/24 03:22:55;;;;;;;;;;;-1.80;51.30;;;;;;4361341;32;19954;-38
2021/11/24 03:25:21;;;;;;;;;;;-1.70;51.20;;;;;;4387754;32;20412;-39
2021/11/24 03:27:48;;;;;;;;;;;-1.70;51.00;;;;;;4373606;32;20008;-39
2021/11/24 03:30:22;;;;;;;;;;;-1.70;50.70;;;;;;4387600;32;19966;-40
2021/11/24 03:32:48;;;;;;;;;;;-1.70;50.80;;;;;;4387893;32;20449;-39
2021/11/24 03:35:15;;;;;;;;;;;-1.70;50.80;;;;;;4387392;32;19965;-41
2021/11/24 03:37:41;;;;;;;;;;;-1.70;50.70;;;;;;4387723;32;19969;-39
2021/11/24 03:40:08;;;;;;;;;;;-1.70;50.70;;;;;;4387740;32;19966;-40
2021/11/24 03:42:36;;;;;;;;;;;-1.80;50.80;;;;;;4387654;32;19996;-38
2021/11/24 03:45:03;;;;;;;;;;;-1.70;51.00;;;;;;4387651;32;19974;-38
2021/11/24 03:47:29;;;;;;;;;;;-1.70;50.90;;;;;;4373499;32;19969;-37
2021/11/24 03:49:55;;;;;;;;;;;-1.70;50.80;;;;;;4387702;32;19977;-39
2021/11/24 03:52:22;;;;;;;;;;;-1.60;50.90;;;;;;4387680;32;20414;-40
2021/11/24 03:54:48;;;;;;;;;;;-1.60;50.80;;;;;;4387385;32;19961;-38
2021/11/24 03:57:14;;;;;;;;;;;-1.60;50.30;;;;;;4387322;32;20050;-40
2021/11/24 03:59:40;;;;;;;;;;;-1.60;50.30;;;;;;4387787;32;20053;-39
2021/11/24 04:02:06;;;;;;;;;;;-1.60;50.30;;;;;;4387110;32;20042;-40
2021/11/24 04:04:33;;;;;;;;;;;-1.70;50.30;;;;;;4387472;32;19977;-40
2021/11/24 04:07:01;;;;;;;;;;;-1.70;50.40;;;;;;4387769;32;19973;-36
2021/11/24 04:09:28;;;;;;;;;;;-1.70;50.60;;;;;;4387605;32;19969;-45
2021/11/24 04:11:54;;;;;;;;;;;-1.70;50.60;;;;;;4388147;32;20451;-37
2021/11/24 04:14:20;;;;;;;;;;;-1.70;50.70;;;;;;4390235;32;20477;-38
2021/11/24 04:16:46;;;;;;;;;;;-1.70;50.80;;;;;;4390435;32;20413;-39
2021/11/24 04:19:13;;;;;;;;;;;-1.70;50.70;;;;;;4342456;33;19982;-38
2021/11/24 04:21:39;;;;;;;;;;;-1.70;50.70;;;;;;4328478;33;20002;-39
2021/11/24 04:24:05;;;;;;;;;;;-1.70;50.80;;;;;;4328663;33;19983;-39
2021/11/24 04:26:31;;;;;;;;;;;-1.80;50.60;;;;;;4328526;33;19998;-37
2021/11/24 04:28:58;;;;;;;;;;;-1.90;50.70;;;;;;4328826;33;19989;-40
2021/11/24 04:31:24;;;;;;;;;;;-2.00;51.00;;;;;;4328277;33;19990;-39
2021/11/24 04:33:50;;;;;;;;;;;-2.10;51.20;;;;;;4327615;33;20395;-38
2021/11/24 04:36:16;;;;;;;;;;;-2.20;51.30;;;;;;4327727;33;20083;-40
2021/11/24 04:38:43;;;;;;;;;;;-2.20;51.50;;;;;;4327515;33;20657;-39
2021/11/24 04:41:09;;;;;;;;;;;-2.20;51.60;;;;;;4327301;33;20048;-40
2021/11/24 04:43:41;;;;;;;;;;;-2.20;51.70;;;;;;4327883;33;20392;-35
2021/11/24 04:46:07;;;;;;;;;;;-2.10;51.70;;;;;;4328686;33;19986;-39
2021/11/24 04:48:35;;;;;;;;;;;-2.10;51.50;;;;;;4327516;33;20508;-39
2021/11/24 04:51:01;;;;;;;;;;;-2.10;51.40;;;;;;4354674;32;20046;-40
2021/11/24 04:53:27;;;;;;;;;;;-2.10;51.40;;;;;;4360023;32;20396;-40
2021/11/24 04:55:54;;;;;;;;;;;-2.00;51.30;;;;;;4359716;32;19962;-40
2021/11/24 04:58:20;;;;;;;;;;;-2.00;51.30;;;;;;4359543;32;20013;-40
2021/11/24 05:00:46;;;;;;;;;;;-2.00;51.30;;;;;;4359087;32;19970;-39
2021/11/24 05:03:12;;;;;;;;;;;-1.90;51.30;;;;;;4359081;32;20429;-39
2021/11/24 05:05:39;;;;;;;;;;;-1.90;51.10;;;;;;4359246;32;20368;-39
2021/11/24 05:08:06;;;;;;;;;;;-1.80;51.10;;;;;;4356100;32;20576;-38
2021/11/24 05:10:32;;;;;;;;;;;-1.70;51.10;;;;;;4357169;32;20059;-39
2021/11/24 05:12:59;;;;;;;;;;;-1.70;50.90;;;;;;4356647;32;20490;-40
2021/11/24 05:15:34;;;;;;;;;;;-1.70;50.70;;;;;;4356666;32;20442;-41
2021/11/24 05:18:03;;;;;;;;;;;-1.70;50.30;;;;;;4345178;32;20021;-39
2021/11/24 05:20:31;;;;;;;;;;;-1.70;50.60;;;;;;4357134;32;20058;-39
2021/11/24 05:23:03;;;;;;;;;;;-1.60;50.70;;;;;;4355845;32;19982;-40
2021/11/24 05:25:29;;;;;;;;;;;-1.60;50.50;;;;;;4357010;32;20520;-37
2021/11/24 05:27:56;;;;;;;;;;;-1.70;50.20;;;;;;4343999;32;20422;-39
2021/11/24 05:30:22;;;;;;;;;;;-1.70;50.40;;;;;;4356370;32;20426;-38
2021/11/24 05:32:49;;;;;;;;;;;-1.70;50.50;;;;;;4356475;32;20399;-39
2021/11/24 05:35:20;;;;;;;;;;;-1.70;50.30;;;;;;4344581;32;19982;-40
2021/11/24 05:37:48;;;;;;;;;;;-1.70;50.30;;;;;;4356488;32;20433;-40
2021/11/24 05:40:14;;;;;;;;;;;-1.70;50.10;;;;;;4365128;32;19990;-39
2021/11/24 05:42:46;;;;;;;;;;;-1.70;50.30;;;;;;4371691;32;19963;-39
2021/11/24 05:45:25;;;;;;;;;;;-1.70;50.40;;;;;;4362593;32;19977;-40
2021/11/24 05:48:24;;;;;;;;;;;-1.70;50.30;;;;;;4373667;32;20630;-38
2021/11/24 05:50:44;;;;;;;;;;;-1.70;50.50;;;;;;4371689;32;19968;-39
2021/11/24 05:53:10;;;;;;;;;;;-1.70;50.30;;;;;;4373481;32;19962;-40
2021/11/24 05:55:37;;;;;;;;;;;-1.70;50.30;;;;;;4373605;32;20446;-40
2021/11/24 05:58:03;;;;;;;;;;;-1.70;50.40;;;;;;4373423;32;20381;-40
2021/11/24 06:00:29;;;;;;;;;;;-1.60;50.40;;;;;;4373468;32;20121;-39
2021/11/24 06:02:55;;;;;;;;;;;-1.60;49.80;;;;;;4371973;32;20003;-39
2021/11/24 06:05:22;;;;;;;;;;;-1.80;49.50;;;;;;4373114;32;19989;-39
2021/11/24 06:07:48;;;;;;;;;;;-1.90;49.60;;;;;;4373537;32;19962;-41
2021/11/24 06:10:14;;;;;;;;;;;-2.00;50.00;;;;;;4373103;32;20410;-40
2021/11/24 06:12:40;;;;;;;;;;;-2.00;50.30;;;;;;4373686;32;19972;-39
2021/11/24 06:15:07;;;;;;;;;;;-2.00;50.60;;;;;;4373124;32;20017;-36
2021/11/24 06:17:33;;;;;;;;;;;-2.10;50.40;;;;;;4373177;32;20433;-39
2021/11/24 06:19:59;;;;;;;;;;;-2.20;50.40;;;;;;4376744;32;19995;-39
2021/11/24 06:22:26;;;;;;;;;;;-2.20;50.60;;;;;;4387795;32;19977;-41
2021/11/24 06:24:53;;;;;;;;;;;-2.20;50.90;;;;;;4388324;32;19985;-40
2021/11/24 06:27:19;;;;;;;;;;;-2.10;50.80;;;;;;4388024;32;19981;-41
2021/11/24 06:29:45;;;;;;;;;;;-2.10;51.00;;;;;;4388068;32;19992;-37
2021/11/24 06:32:11;;;;;;;;;;;-1.90;51.20;;;;;;4388234;32;19977;-40
2021/11/24 06:34:37;;;;;;;;;;;-1.90;50.70;;;;;;4387862;32;19968;-37
2021/11/24 06:37:04;;;;;;;;;;;-2.00;50.50;;;;;;4387944;32;20001;-40
2021/11/24 06:39:30;;;;;;;;;;;-2.00;50.60;;;;;;4387918;32;19993;-39
2021/11/24 06:41:56;;;;;;;;;;;-2.00;50.70;;;;;;4387677;32;19984;-39
2021/11/24 06:44:23;;;;;;;;;;;-2.10;50.60;;;;;;4387605;32;20000;-40
2021/11/24 06:46:49;;;;;;;;;;;-2.00;50.70;;;;;;4387614;32;19957;-38
2021/11/24 06:49:15;;;;;;;;;;;-2.00;50.70;;;;;;4389110;32;20382;-40
2021/11/24 06:51:41;;;;;;;;;;;-1.90;50.70;;;;;;4387942;32;20048;-39
2021/11/24 06:54:08;;;;;;;;;;;-1.90;50.30;;;;;;4387739;32;19977;-40
2021/11/24 06:56:34;;;;;;;;;;;-1.80;50.30;;;;;;4373867;32;19962;-39
2021/11/24 06:59:00;;;;;;;;;;;-1.80;50.20;;;;;;4388050;32;19965;-40
2021/11/24 07:01:27;;;;;;;;;;;-1.70;50.20;;;;;;4387601;32;19974;-40
2021/11/24 07:03:53;;;;;;;;;;;-1.60;50.10;;;;;;4387761;32;19962;-41
2021/11/24 07:06:19;;;;;;;;;;;-1.60;49.80;;;;;;4387333;32;19969;-40
2021/11/24 07:08:45;;;;;;;;;;;-1.60;49.60;;;;;;4373967;32;19993;-41
2021/11/24 07:11:12;;;;;;;;;;;-1.50;49.90;;;;;;4387918;32;19978;-39
2021/11/24 07:13:38;;;;;;;;;;;-1.50;49.40;;;;;;4355733;32;20092;-39
2021/11/24 07:16:04;;;;;;;;;;;-1.60;48.60;;;;;;4355633;32;20564;-38
2021/11/24 07:18:31;;;;;;;;;;;-1.70;48.50;;;;;;4355901;32;19997;-40
2021/11/24 07:20:57;;;;;;;;;;;-1.80;48.70;;;;;;4345790;32;20114;-37
2021/11/24 07:23:23;;;;;;;;;;;-1.80;49.20;;;;;;4328153;33;20038;-39
2021/11/24 07:25:49;;;;;;;;;;;-1.80;49.20;;;;;;4340612;33;19989;-39
2021/11/24 07:28:16;;;;;;;;;;;-1.80;49.10;;;;;;4340489;33;20058;-38
2021/11/24 07:30:42;;;;;;;;;;;-1.80;49.40;;;;;;4340629;33;19975;-38
2021/11/24 07:33:08;;;;;;;;;;;-1.70;49.20;;;;;;4340226;33;19995;-39
2021/11/24 07:35:35;;;;;;;;;;;-1.80;48.50;;;;;;4340475;33;19982;-39
2021/11/24 07:38:01;;;;;;;;;;;-1.70;48.70;;;;;;4340388;33;20359;-38
2021/11/24 07:40:27;;;;;;;;;;;-1.70;48.90;;;;;;4339991;33;19978;-38
2021/11/24 07:42:54;;;;;;;;;;;-1.60;49.00;;;;;;4339984;33;20496;-39
2021/11/24 07:45:20;;;;;;;;;;;-1.40;49.10;;;;;;4353623;32;19978;-39
2021/11/24 07:47:46;;;;;;;;;;;-1.20;49.20;;;;;;4360070;32;19994;-40
2021/11/24 07:50:13;;;;;;;;;;;-1.10;48.70;;;;;;4360819;32;19972;-38
2021/11/24 07:52:39;;;;;;;;;;;-1.00;48.20;;;;;;4360777;32;19970;-39
2021/11/24 07:55:05;;;;;;;;;;;-1.00;47.70;;;;;;4360583;32;20055;-39
2021/11/24 07:57:31;;;;;;;;;;;-1.00;47.60;;;;;;4360533;32;20006;-39
2021/11/24 07:59:58;;;;;;;;;;;-1.10;47.30;;;;;;4360535;32;19981;-39
2021/11/24 08:02:24;;;;;;;;;;;-1.10;47.70;;;;;;4360477;32;19959;-39
2021/11/24 08:04:51;;;;;;;;;;;-1.10;48.00;;;;;;4360562;32;19974;-37
2021/11/24 08:07:17;;;;;;;;;;;-1.00;47.80;;;;;;4360860;32;20114;-39
2021/11/24 08:09:44;;;;;;;;;;;-1.10;47.50;;;;;;4360083;32;20063;-39
2021/11/24 08:12:10;;;;;;;;;;;-1.10;47.50;;;;;;4360613;32;19990;-39
2021/11/24 08:14:36;;;;;;;;;;;-1.00;47.80;;;;;;4358568;32;19997;-37
2021/11/24 08:17:04;;;;;;;;;;;-1.00;46.90;;;;;;4359949;32;20434;-38
2021/11/24 08:19:30;;;;;;;;;;;-1.00;46.70;;;;;;4361275;32;19982;-39
2021/11/24 08:21:56;;;;;;;;;;;-1.10;46.80;;;;;;4375051;32;20507;-38
2021/11/24 08:24:22;;;;;;;;;;;-1.00;47.20;;;;;;4375548;32;19976;-39
2021/11/24 08:26:49;;;;;;;;;;;-1.00;46.80;;;;;;4374834;32;19982;-39
2021/11/24 08:29:15;;;;;;;;;;;-0.90;46.70;;;;;;4375428;32;20000;-36
2021/11/24 08:31:41;;;;;;;;;;;-0.90;46.50;;;;;;4361219;32;19989;-40
2021/11/24 08:34:08;;;;;;;;;;;-0.90;46.60;;;;;;4374803;32;20495;-39
2021/11/24 08:36:35;;;;;;;;;;;-0.90;46.30;;;;;;4374726;32;20570;-47
2021/11/24 08:39:03;;;;;;;;;;;-1.00;46.60;;;;;;4375780;32;19955;-39
2021/11/24 08:41:29;;;;;;;;;;;-0.90;46.80;;;;;;4389846;32;20546;-40
2021/11/24 08:43:55;;;;;;;;;;;-0.90;46.60;;;;;;4389490;32;20006;-39
2021/11/24 08:46:21;;;;;;;;;;;-1.00;46.50;;;;;;4390444;32;19962;-38
2021/11/24 08:48:48;;;;;;;;;;;-1.00;46.90;;;;;;4389506;32;20060;-38
2021/11/24 08:51:14;;;;;;;;;;;-0.90;47.20;;;;;;4375868;32;19965;-39
2021/11/24 08:53:40;;;;;;;;;;;-0.90;47.00;;;;;;4375520;32;19964;-39
2021/11/24 08:56:06;;;;;;;;;;;-0.80;47.20;;;;;;4389427;32;19989;-38
2021/11/24 08:58:33;;;;;;;;;;;-0.80;47.20;;;;;;4389334;32;20463;-38
2021/11/24 09:00:59;;;;;;;;;;;-0.70;47.10;;;;;;4389926;32;19988;-38
2021/11/24 09:03:25;;;;;;;;;;;-0.60;47.20;;;;;;4375582;32;20033;-38
2021/11/24 09:05:51;;;;;;;;;;;-0.50;47.20;;;;;;4389567;32;20494;-38
2021/11/24 09:08:17;;;;;;;;;;;-0.60;46.70;;;;;;4389402;32;19965;-37
2021/11/24 09:10:44;;;;;;;;;;;-0.60;47.10;;;;;;4389718;32;20047;-39
2021/11/24 09:13:10;;;;;;;;;;;-0.70;47.40;;;;;;4389039;32;19966;-39
2021/11/24 09:15:36;;;;;;;;;;;-0.80;47.70;;;;;;4388928;32;20414;-38
2021/11/24 09:18:03;;;;;;;;;;;-0.80;47.40;;;;;;4388950;32;19977;-39
2021/11/24 09:20:29;;;;;;;;;;;-0.90;47.60;;;;;;4381954;32;20378;-39
2021/11/24 09:22:56;;;;;;;;;;;-1.00;48.10;;;;;;4374089;32;20001;-39
2021/11/24 09:25:25;;;;;;;;;;;-1.00;48.20;;;;;;4374023;32;19968;-39
2021/11/24 09:27:58;;;;;;;;;;;-0.90;48.20;;;;;;4374363;32;20042;-39
2021/11/24 09:30:24;;;;;;;;;;;-1.00;48.20;;;;;;4360971;32;19977;-39
2021/11/24 09:32:51;;;;;;;;;;;-0.90;48.60;;;;;;4374170;32;19970;-38
2021/11/24 09:35:17;;;;;;;;;;;-0.70;48.70;;;;;;4356290;32;20502;-40
2021/11/24 09:37:43;;;;;;;;;;;-0.60;48.30;;;;;;4356731;32;19982;-41
2021/11/24 09:40:10;;;;;;;;;;;-0.60;47.40;;;;;;4356370;32;20417;-40
2021/11/24 09:42:39;;;;;;;;;;;-0.60;47.70;;;;;;4343952;32;20407;-38
2021/11/24 09:45:06;;;;;;;;;;;-0.60;47.60;;;;;;4356402;32;20393;-40
2021/11/24 09:47:33;;;;;;;;;;;-0.60;47.80;;;;;;4356528;32;19980;-39
2021/11/24 09:49:59;;;;;;;;;;;-0.50;47.60;;;;;;4356218;32;19979;-40
2021/11/24 09:52:26;;;;;;;;;;;-0.60;46.80;;;;;;4356282;32;20374;-39
2021/11/24 09:54:52;;;;;;;;;;;-0.70;46.60;;;;;;4356110;32;19982;-40
2021/11/24 09:57:25;;;;;;;;;;;-0.80;47.10;;;;;;4356597;32;19978;-41
2021/11/24 09:59:52;;;;;;;;;;;-0.80;47.60;;;;;;4356341;32;20114;-40
2021/11/24 10:02:18;;;;;;;;;;;-0.80;47.90;;;;;;4331867;32;20156;-41
2021/11/24 10:04:45;;;;;;;;;;;-0.80;48.50;;;;;;4356721;32;19977;-40
2021/11/24 10:07:13;;;;;;;;;;;-0.80;47.90;;;;;;4371649;32;20400;-40
2021/11/24 10:09:40;;;;;;;;;;;-0.80;47.60;;;;;;4373584;32;19985;-39
2021/11/24 10:12:07;;;;;;;;;;;-0.90;47.20;;;;;;4373890;32;19981;-40
2021/11/24 10:14:33;;;;;;;;;;;-0.90;47.30;;;;;;4373138;32;19967;-40
2021/11/24 10:17:05;;;;;;;;;;;-1.00;47.30;;;;;;4359696;32;19966;-40
2021/11/24 10:19:31;;;;;;;;;;;-1.10;47.60;;;;;;4373548;32;19968;-40
2021/11/24 10:22:10;;;;;;;;;;;-1.20;48.30;;;;;;4373049;32;20462;-37
2021/11/24 10:24:38;;;;;;;;;;;-1.20;48.50;;;;;;4373724;32;19969;-40
2021/11/24 10:27:06;;;;;;;;;;;-1.10;48.50;;;;;;4373799;32;20503;-41
2021/11/24 10:29:33;;;;;;;;;;;-1.20;48.30;;;;;;4373512;32;19966;-39
2021/11/24 10:32:04;;;;;;;;;;;-1.20;48.20;;;;;;4373460;32;19962;-39
2021/11/24 10:34:32;;;;;;;;;;;-1.30;48.20;;;;;;4373521;32;19993;-40
2021/11/24 10:37:05;;;;;;;;;;;-1.40;48.80;;;;;;4373283;32;20463;-42
2021/11/24 10:39:48;;;;;;;;;;;-1.40;49.20;;;;;;4377701;32;20043;-42
2021/11/24 10:42:23;;;;;;;;;;;-1.40;49.80;;;;;;4388395;32;19973;-40
2021/11/24 10:44:54;;;;;;;;;;;-1.40;50.20;;;;;;4388362;32;19981;-42
2021/11/24 10:47:21;;;;;;;;;;;-1.40;50.10;;;;;;4388393;32;19962;-40
2021/11/24 10:49:52;;;;;;;;;;;-1.40;50.00;;;;;;4388382;32;19981;-42
2021/11/24 10:52:18;;;;;;;;;;;-1.40;50.30;;;;;;4388370;32;19964;-40
2021/11/24 10:54:59;;;;;;;;;;;-1.40;50.20;;;;;;4374056;32;19989;-41
2021/11/24 10:57:25;;;;;;;;;;;-1.40;49.80;;;;;;4388308;32;19958;-40
2021/11/24 10:59:51;;;;;;;;;;;-1.50;50.10;;;;;;4388203;32;19969;-40
2021/11/24 11:02:29;;;;;;;;;;;-1.40;50.40;;;;;;4374413;32;19966;-41
2021/11/24 11:05:10;;;;;;;;;;;-1.40;50.20;;;;;;4374010;32;19966;-39
2021/11/24 11:08:01;;;;;;;;;;;-1.40;50.10;;;;;;4373914;32;19977;-41
2021/11/24 11:10:33;;;;;;;;;;;-1.30;50.30;;;;;;4387966;32;19978;-41
2021/11/24 11:13:13;;;;;;;;;;;-1.30;50.10;;;;;;4387972;32;19996;-41
2021/11/24 11:15:40;;;;;;;;;;;-1.40;49.80;;;;;;4387865;32;19992;-41
2021/11/24 11:18:14;;;;;;;;;;;-1.40;49.60;;;;;;4373511;32;19989;-41
2021/11/24 11:20:44;;;;;;;;;;;-1.40;49.40;;;;;;4379999;32;19962;-42
2021/11/24 11:23:13;;;;;;;;;;;-1.40;49.30;;;;;;4375667;32;19954;-41
2021/11/24 11:26:03;;;;;;;;;;;-1.40;49.50;;;;;;4376082;32;19994;-40
2021/11/24 11:28:34;;;;;;;;;;;-1.40;49.40;;;;;;4375256;32;19970;-41
2021/11/24 11:31:06;;;;;;;;;;;-1.40;49.00;;;;;;4375598;32;20361;-46
2021/11/24 11:33:35;;;;;;;;;;;-1.50;48.70;;;;;;4376066;32;19958;-40
2021/11/24 11:36:07;;;;;;;;;;;-1.50;48.90;;;;;;4375660;32;19962;-41
2021/11/24 11:38:33;;;;;;;;;;;-1.50;48.60;;;;;;4375337;32;19969;-38
2021/11/24 11:41:00;;;;;;;;;;;-1.50;48.50;;;;;;4360308;32;19961;-41
2021/11/24 11:43:26;;;;;;;;;;;-1.50;48.40;;;;;;4376414;32;20401;-40
2021/11/24 11:45:52;;;;;;;;;;;-1.50;48.30;;;;;;4374361;32;19982;-40
2021/11/24 11:48:29;;;;;;;;;;;-1.50;48.00;;;;;;4375698;32;20040;-41
2021/11/24 11:50:58;;;;;;;;;;;-1.50;47.80;;;;;;4375832;32;19989;-40
2021/11/24 11:53:25;;;;;;;;;;;-1.50;47.60;;;;;;4376035;32;20406;-41
2021/11/24 11:56:09;;;;;;;;;;;-1.60;47.70;;;;;;4375942;32;19977;-48
2021/11/24 11:58:59;;;;;;;;;;;-1.60;47.70;;;;;;4375601;32;20072;-41
2021/11/24 12:01:36;;;;;;;;;;;-1.60;47.70;;;;;;4375727;32;20562;-39
2021/11/24 12:04:11;;;;;;;;;;;-1.60;47.30;;;;;;4375287;32;19973;-40
2021/11/24 12:06:41;;;;;;;;;;;-1.60;47.10;;;;;;4375020;32;20385;-39
2021/11/24 12:09:07;;;;;;;;;;;-1.60;47.00;;;;;;4372397;32;19978;-42
2021/11/24 12:12:05;;;;;;;;;;;-1.60;46.90;;;;;;4372627;32;19977;-40
2021/11/24 12:14:43;;;;;;;;;;;-1.60;47.10;;;;;;4372955;32;20114;-40
2021/11/24 12:17:27;;;;;;;;;;;-1.60;46.80;;;;;;4372854;32;20499;-40
2021/11/24 12:19:58;;;;;;;;;;;-1.50;47.00;;;;;;4375713;32;20714;-39
2021/11/24 12:27:57;;;;;;;;;;;-1.60;46.40;;;;;;4387338;32;20146;-42
2021/11/24 12:30:48;;;;;;;;;;;-1.60;46.60;;;;;;4387948;32;19984;-43
2021/11/24 12:33:15;;;;;;;;;;;-1.60;46.60;;;;;;4386814;32;20234;-41
2021/11/24 12:35:52;;;;;;;;;;;-1.70;46.80;;;;;;4342378;33;19986;-40
2021/11/24 12:38:19;;;;;;;;;;;-1.80;47.10;;;;;;4342778;33;20016;-40
2021/11/24 12:40:47;;;;;;;;;;;-1.80;47.30;;;;;;4342342;33;19991;-42
2021/11/24 12:43:18;;;;;;;;;;;-1.80;47.60;;;;;;4342681;33;20042;-40
2021/11/24 12:46:07;;;;;;;;;;;-1.80;47.60;;;;;;4342412;33;20156;-41
2021/11/24 12:49:11;;;;;;;;;;;-1.80;47.60;;;;;;4342328;33;20043;-39
2021/11/24 12:51:58;;;;;;;;;;;-1.90;47.50;;;;;;4342371;33;20383;-41
2021/11/24 12:54:29;;;;;;;;;;;-1.90;47.80;;;;;;4330928;33;20051;-41
2021/11/24 12:57:00;;;;;;;;;;;-1.90;47.70;;;;;;4343211;33;20034;-41
2021/11/24 12:59:29;;;;;;;;;;;-1.90;47.70;;;;;;4342681;33;20063;-39
2021/11/24 13:01:58;;;;;;;;;;;-1.90;48.10;;;;;;4342824;33;19989;-41
2021/11/24 13:04:36;;;;;;;;;;;-1.90;48.30;;;;;;4342579;33;20078;-41
2021/11/24 13:07:03;;;;;;;;;;;-1.90;48.50;;;;;;4371404;32;20437;-39
2021/11/24 13:09:34;;;;;;;;;;;-1.90;48.70;;;;;;4375475;32;20010;-40
2021/11/24 13:12:08;;;;;;;;;;;-1.90;48.80;;;;;;4389523;32;20008;-39
2021/11/24 13:14:38;;;;;;;;;;;-1.90;48.80;;;;;;4389261;32;20418;-40
2021/11/24 13:17:20;;;;;;;;;;;-1.80;48.90;;;;;;4389530;32;20064;-40
2021/11/24 13:19:57;;;;;;;;;;;-1.90;49.00;;;;;;4386400;32;20407;-42
2021/11/24 13:22:37;;;;;;;;;;;-1.80;49.20;;;;;;4359896;32;19969;-42
2021/11/24 13:25:13;;;;;;;;;;;-1.90;49.20;;;;;;4373096;32;20376;-41
2021/11/24 13:27:48;;;;;;;;;;;-1.80;49.20;;;;;;4373545;32;19968;-40
2021/11/24 13:30:17;;;;;;;;;;;-1.80;49.20;;;;;;4374314;32;19977;-42
2021/11/24 13:33:25;;;;;;;;;;;-1.80;49.30;;;;;;4373854;32;19980;-42
2021/11/24 13:35:56;;;;;;;;;;;-1.80;49.30;;;;;;4366224;32;20499;-42
2021/11/24 13:38:32;;;;;;;;;;;-1.70;49.30;;;;;;4374320;32;20410;-41
2021/11/24 13:41:11;;;;;;;;;;;-1.80;49.20;;;;;;4374341;32;19961;-42
2021/11/24 13:43:38;;;;;;;;;;;-1.70;49.30;;;;;;4373871;32;19993;-41
2021/11/24 13:46:18;;;;;;;;;;;-1.70;49.50;;;;;;4373955;32;20475;-42
2021/11/24 13:48:46;;;;;;;;;;;-1.70;49.60;;;;;;4373797;32;20066;-40
2021/11/24 13:51:17;;;;;;;;;;;-1.70;49.80;;;;;;4373741;32;19978;-43
2021/11/24 13:53:43;;;;;;;;;;;-1.70;49.80;;;;;;4373755;32;19962;-42
2021/11/24 13:56:11;;;;;;;;;;;-1.70;49.70;;;;;;4373816;32;19993;-42
2021/11/24 13:58:38;;;;;;;;;;;-1.60;49.80;;;;;;4374026;32;20042;-41
2021/11/24 14:01:18;;;;;;;;;;;-1.70;49.70;;;;;;4373570;32;20517;-41
2021/11/24 14:03:48;;;;;;;;;;;-1.60;49.80;;;;;;4373908;32;20149;-41
2021/11/24 14:06:47;;;;;;;;;;;-1.60;49.80;;;;;;4373977;32;19969;-41
2021/11/24 14:09:15;;;;;;;;;;;-1.60;49.80;;;;;;4373845;32;20042;-42
2021/11/24 14:11:57;;;;;;;;;;;-1.60;49.80;;;;;;4373444;32;19958;-41
2021/11/24 14:14:26;;;;;;;;;;;-1.60;49.80;;;;;;4373317;32;19997;-41
2021/11/24 14:16:56;;;;;;;;;;;-1.60;49.80;;;;;;4373290;32;20026;-43
2021/11/24 14:19:22;;;;;;;;;;;-1.60;49.70;;;;;;4372846;32;19974;-40
2021/11/24 14:21:52;;;;;;;;;;;-1.60;49.70;;;;;;4372697;32;20382;-42
2021/11/24 14:24:18;;;;;;;;;;;-1.60;49.70;;;;;;4372824;32;20570;-42
2021/11/24 14:26:44;;;;;;;;;;;-1.60;49.70;;;;;;4371759;32;20066;-42
2021/11/24 14:29:11;;;;;;;;;;;-1.60;49.80;;;;;;4373281;32;19976;-41
2021/11/24 14:31:37;;;;;;;;;;;-1.50;50.00;;;;;;4373620;32;19974;-42